createdAt,value
2022-07-31T00:00:22.491Z,98.10
2022-07-31T00:02:49.919Z,98.10
2022-07-31T00:05:17.280Z,98.00
2022-07-31T00:07:44.679Z,98.20
2022-07-31T00:10:12.035Z,98.20
2022-07-31T00:12:39.401Z,98.20
2022-07-31T00:15:07.779Z,98.30
2022-07-31T00:17:35.122Z,98.30
2022-07-31T00:20:02.453Z,98.30
2022-07-31T00:22:30.099Z,98.40
2022-07-31T00:24:57.471Z,98.50
2022-07-31T00:27:24.787Z,98.50
2022-07-31T00:29:52.129Z,98.50
2022-07-31T00:32:19.715Z,98.50
2022-07-31T00:34:47.044Z,98.80
2022-07-31T00:37:14.399Z,98.80
2022-07-31T00:39:43.379Z,98.80
2022-07-31T00:42:24.288Z,98.90
2022-07-31T00:44:51.723Z,98.80
2022-07-31T00:47:23.862Z,98.80
2022-07-31T00:49:53.080Z,98.90
2022-07-31T00:52:20.575Z,98.80
2022-07-31T00:54:47.995Z,98.80
2022-07-31T00:57:15.406Z,98.90
2022-07-31T00:59:43.745Z,99.00
2022-07-31T01:02:11.700Z,99.10
2022-07-31T01:04:41.674Z,99.20
2022-07-31T01:07:11.760Z,99.40
2022-07-31T01:09:39.151Z,99.50
2022-07-31T01:12:33.906Z,99.50
2022-07-31T01:15:03.705Z,99.70
2022-07-31T01:17:31.188Z,99.60
2022-07-31T01:19:58.791Z,99.50
2022-07-31T01:22:47.944Z,99.60
2022-07-31T01:25:30.268Z,99.80
2022-07-31T01:28:38.788Z,99.80
2022-07-31T01:31:26.873Z,99.80
2022-07-31T01:34:28.015Z,99.80
2022-07-31T01:37:12.673Z,99.80
2022-07-31T01:39:46.789Z,99.80
2022-07-31T01:42:15.166Z,99.70
2022-07-31T01:44:44.056Z,99.60
2022-07-31T01:47:15.666Z,99.60
2022-07-31T01:49:43.017Z,99.30
2022-07-31T01:52:10.431Z,99.20
2022-07-31T01:54:38.044Z,99.00
2022-07-31T01:57:05.447Z,99.10
2022-07-31T01:59:38.081Z,98.80
2022-07-31T02:02:15.647Z,98.80
2022-07-31T02:04:47.061Z,98.80
2022-07-31T02:07:15.172Z,98.90
2022-07-31T02:09:52.443Z,98.90
2022-07-31T02:12:33.757Z,98.80
2022-07-31T02:15:06.539Z,98.60
2022-07-31T02:17:34.798Z,98.60
2022-07-31T02:20:25.348Z,98.50
2022-07-31T02:22:57.545Z,98.40
2022-07-31T02:25:25.130Z,98.10
2022-07-31T02:27:55.479Z,97.90
2022-07-31T02:30:39.243Z,97.60
2022-07-31T02:33:12.439Z,97.60
2022-07-31T02:35:43.866Z,97.60
2022-07-31T02:38:22.332Z,97.40
2022-07-31T02:40:51.447Z,97.20
2022-07-31T02:43:18.945Z,97.20
2022-07-31T02:45:46.327Z,97.40
2022-07-31T02:48:13.724Z,97.50
2022-07-31T02:50:46.887Z,97.20
2022-07-31T02:53:14.222Z,97.20
2022-07-31T02:55:44.393Z,97.10
2022-07-31T02:58:11.885Z,97.00
2022-07-31T03:00:39.504Z,97.00
2022-07-31T03:03:07.162Z,97.00
2022-07-31T03:05:35.711Z,97.00
2022-07-31T03:08:03.217Z,97.00
2022-07-31T03:10:31.697Z,96.90
2022-07-31T03:13:05.115Z,96.80
2022-07-31T03:15:32.503Z,96.80
2022-07-31T03:17:59.877Z,96.80
2022-07-31T03:20:35.717Z,96.70
2022-07-31T03:23:03.186Z,96.70
2022-07-31T03:25:35.357Z,96.70
2022-07-31T03:28:02.808Z,96.60
2022-07-31T03:30:30.170Z,96.60
2022-07-31T03:32:58.021Z,96.70
2022-07-31T03:35:27.108Z,96.60
2022-07-31T03:37:54.744Z,96.80
2022-07-31T03:40:22.412Z,96.90
2022-07-31T03:42:49.850Z,96.80
2022-07-31T03:45:17.302Z,96.70
2022-07-31T03:47:45.399Z,96.80
2022-07-31T03:50:12.928Z,96.90
2022-07-31T03:52:40.364Z,96.80
2022-07-31T03:55:08.361Z,96.90
2022-07-31T03:57:35.900Z,96.80
2022-07-31T04:00:05.316Z,96.70
2022-07-31T04:02:44.489Z,96.60
2022-07-31T04:05:30.450Z,96.80
2022-07-31T04:07:58.364Z,96.80
2022-07-31T04:10:26.021Z,96.70
2022-07-31T04:12:53.546Z,96.70
2022-07-31T04:15:20.911Z,96.90
2022-07-31T04:17:48.363Z,97.10
2022-07-31T04:20:21.525Z,97.00
2022-07-31T04:22:50.151Z,96.80
2022-07-31T04:25:35.445Z,96.90
2022-07-31T04:28:10.081Z,97.10
2022-07-31T04:30:38.233Z,97.00
2022-07-31T04:33:05.700Z,96.70
2022-07-31T04:35:33.411Z,96.70
2022-07-31T04:38:01.079Z,96.80
2022-07-31T04:40:31.348Z,96.70
2022-07-31T04:42:58.892Z,96.60
2022-07-31T04:45:26.292Z,96.60
2022-07-31T04:47:54.006Z,96.60
2022-07-31T04:50:21.460Z,96.40
2022-07-31T04:53:00.655Z,96.60
2022-07-31T04:55:33.706Z,96.50
2022-07-31T04:58:01.135Z,96.50
2022-07-31T05:00:29.034Z,96.40
2022-07-31T05:02:56.416Z,96.40
2022-07-31T05:05:24.092Z,96.40
2022-07-31T05:07:51.439Z,96.30
2022-07-31T05:10:39.449Z,96.10
2022-07-31T05:13:06.912Z,96.10
2022-07-31T05:15:34.835Z,96.20
2022-07-31T05:18:02.589Z,96.20
2022-07-31T05:20:41.736Z,96.00
2022-07-31T05:23:42.011Z,95.80
2022-07-31T05:26:15.520Z,95.80
2022-07-31T05:28:43.278Z,96.00
2022-07-31T05:31:14.147Z,96.10
2022-07-31T05:33:41.548Z,96.20
2022-07-31T05:36:08.900Z,96.00
2022-07-31T05:38:36.290Z,95.70
2022-07-31T05:41:30.846Z,95.50
2022-07-31T05:44:21.381Z,95.30
2022-07-31T05:49:17.095Z,95.10
2022-07-31T05:51:47.687Z,94.90
2022-07-31T05:54:15.079Z,94.60
2022-07-31T05:57:00.798Z,94.30
2022-07-31T05:59:35.756Z,94.30
2022-07-31T06:02:04.093Z,94.10
2022-07-31T06:04:41.756Z,94.00
2022-07-31T06:07:09.145Z,94.00
2022-07-31T06:09:36.861Z,93.80
2022-07-31T06:12:05.456Z,93.80
2022-07-31T06:14:33.283Z,93.80
2022-07-31T06:17:13.137Z,93.80
2022-07-31T06:19:41.701Z,93.70
2022-07-31T06:22:10.055Z,93.50
2022-07-31T06:24:38.392Z,93.40
2022-07-31T06:27:16.233Z,93.30
2022-07-31T06:29:57.913Z,93.10
2022-07-31T06:32:25.283Z,93.30
2022-07-31T06:34:52.893Z,93.40
2022-07-31T06:37:20.397Z,93.50
2022-07-31T06:39:54.406Z,93.60
2022-07-31T06:42:58.841Z,93.60
2022-07-31T06:45:51.154Z,93.60
2022-07-31T06:48:39.803Z,93.80
2022-07-31T06:53:59.100Z,93.00
2022-07-31T06:56:27.811Z,93.20
2022-07-31T06:58:55.349Z,93.00
2022-07-31T07:01:22.964Z,93.10
2022-07-31T07:03:51.022Z,92.90
2022-07-31T07:06:18.392Z,92.70
2022-07-31T07:08:45.785Z,92.60
2022-07-31T07:11:16.260Z,92.80
2022-07-31T07:13:45.233Z,92.60
2022-07-31T07:16:14.980Z,92.70
2022-07-31T07:18:43.260Z,92.60
2022-07-31T07:21:11.157Z,92.70
2022-07-31T07:23:39.134Z,92.40
2022-07-31T07:26:18.855Z,92.60
2022-07-31T07:28:46.419Z,92.40
2022-07-31T07:31:13.768Z,92.50
2022-07-31T07:33:42.907Z,92.50
2022-07-31T07:36:23.468Z,92.60
2022-07-31T07:38:56.107Z,92.60
2022-07-31T07:41:25.059Z,92.10
2022-07-31T07:43:53.217Z,92.20
2022-07-31T07:46:23.325Z,92.00
2022-07-31T07:48:54.449Z,91.70
2022-07-31T07:52:10.089Z,91.70
2022-07-31T07:55:00.456Z,91.80
2022-07-31T07:57:46.465Z,91.90
2022-07-31T08:00:32.516Z,91.80
2022-07-31T08:03:48.689Z,91.60
2022-07-31T08:05:50.726Z,91.30
2022-07-31T08:08:18.119Z,91.10
2022-07-31T08:10:48.408Z,91.20
2022-07-31T08:13:22.967Z,91.20
2022-07-31T08:16:13.078Z,90.90
2022-07-31T08:18:51.476Z,90.60
2022-07-31T08:21:19.007Z,90.50
2022-07-31T08:23:47.501Z,90.00
2022-07-31T08:26:18.181Z,89.60
2022-07-31T08:28:50.628Z,89.50
2022-07-31T08:31:20.213Z,89.60
2022-07-31T08:34:06.224Z,89.80
2022-07-31T08:36:34.758Z,89.70
2022-07-31T08:39:03.800Z,90.10
2022-07-31T08:41:53.988Z,88.30
2022-07-31T08:44:25.695Z,88.20
2022-07-31T08:46:58.730Z,87.80
2022-07-31T08:49:27.154Z,87.50
2022-07-31T08:51:55.487Z,85.80
2022-07-31T08:54:51.896Z,84.30
2022-07-31T08:57:19.542Z,84.60
2022-07-31T08:59:47.190Z,84.10
2022-07-31T09:02:15.860Z,85.10
2022-07-31T09:05:02.918Z,84.00
2022-07-31T09:07:30.318Z,83.20
2022-07-31T09:09:57.773Z,81.80
2022-07-31T09:12:34.043Z,82.10
2022-07-31T09:15:20.479Z,80.40
2022-07-31T09:17:53.726Z,79.80
2022-07-31T09:20:24.446Z,79.00
2022-07-31T09:23:09.029Z,77.80
2022-07-31T09:25:41.805Z,76.40
2022-07-31T09:28:09.186Z,75.90
2022-07-31T09:30:55.853Z,75.60
2022-07-31T09:33:46.315Z,71.20
2022-07-31T09:36:14.103Z,70.10
2022-07-31T09:38:46.115Z,67.20
2022-07-31T09:42:00.885Z,67.30
2022-07-31T09:44:38.853Z,69.10
2022-07-31T09:47:06.869Z,68.40
2022-07-31T09:49:34.837Z,67.00
2022-07-31T09:52:02.379Z,66.00
2022-07-31T09:54:31.371Z,64.70
2022-07-31T09:56:58.859Z,63.30
2022-07-31T09:59:29.958Z,62.70
2022-07-31T10:01:57.412Z,62.00
2022-07-31T10:04:24.979Z,61.40
2022-07-31T10:06:52.592Z,60.00
2022-07-31T10:09:20.953Z,59.50
2022-07-31T10:12:17.537Z,57.00
2022-07-31T10:14:45.193Z,57.30
2022-07-31T10:17:13.814Z,53.90
2022-07-31T10:20:02.841Z,53.80
2022-07-31T10:22:47.622Z,54.10
2022-07-31T10:25:24.867Z,53.90
2022-07-31T10:27:54.133Z,53.50
2022-07-31T10:30:27.349Z,52.40
2022-07-31T10:32:56.891Z,51.70
2022-07-31T10:35:55.639Z,51.80
2022-07-31T10:39:05.585Z,52.60
2022-07-31T10:42:15.991Z,51.60
2022-07-31T10:44:50.755Z,51.80
2022-07-31T10:47:19.884Z,52.00
2022-07-31T10:50:26.484Z,50.00
2022-07-31T10:53:50.231Z,50.30
2022-07-31T10:56:13.867Z,51.00
2022-07-31T10:59:03.645Z,50.80
2022-07-31T11:02:06.182Z,51.70
2022-07-31T11:04:45.923Z,51.10
2022-07-31T11:07:19.733Z,50.30
2022-07-31T11:10:16.521Z,51.50
2022-07-31T11:13:10.874Z,51.60
2022-07-31T11:15:53.636Z,51.10
2022-07-31T11:19:06.480Z,50.90
2022-07-31T11:21:39.523Z,49.30
2022-07-31T11:24:17.286Z,49.50
2022-07-31T11:26:51.544Z,50.20
2022-07-31T11:30:01.809Z,49.90
2022-07-31T11:32:17.689Z,50.60
2022-07-31T11:35:55.804Z,51.40
2022-07-31T11:38:29.582Z,51.80
2022-07-31T11:40:56.970Z,51.30
2022-07-31T11:43:26.348Z,50.60
2022-07-31T11:45:55.032Z,50.20
2022-07-31T11:48:26.576Z,50.30
2022-07-31T11:50:54.914Z,50.00
2022-07-31T11:53:22.363Z,49.70
2022-07-31T11:56:00.828Z,49.60
2022-07-31T11:58:29.150Z,48.70
2022-07-31T12:01:01.058Z,48.40
2022-07-31T12:03:36.546Z,48.40
2022-07-31T12:06:05.126Z,49.50
2022-07-31T12:08:32.499Z,49.30
2022-07-31T12:11:00.472Z,49.10
2022-07-31T12:13:28.177Z,48.60
2022-07-31T12:16:06.098Z,49.00
2022-07-31T12:18:56.328Z,48.40
2022-07-31T12:21:35.766Z,49.80
2022-07-31T12:24:05.267Z,49.70
2022-07-31T12:26:33.178Z,49.00
2022-07-31T12:29:09.146Z,49.00
2022-07-31T12:31:58.820Z,49.40
2022-07-31T12:34:41.654Z,48.80
2022-07-31T12:37:15.452Z,47.50
2022-07-31T12:40:00.920Z,47.50
2022-07-31T12:42:40.754Z,47.30
2022-07-31T12:45:18.174Z,47.80
2022-07-31T12:47:51.575Z,49.00
2022-07-31T12:50:20.550Z,49.20
2022-07-31T12:52:47.899Z,50.20
2022-07-31T12:55:17.139Z,48.80
2022-07-31T12:57:51.079Z,49.00
2022-07-31T13:00:22.475Z,49.00
2022-07-31T13:02:50.809Z,50.20
2022-07-31T13:05:18.240Z,48.80
2022-07-31T13:07:45.688Z,48.90
2022-07-31T13:10:15.964Z,48.70
2022-07-31T13:12:52.258Z,47.70
2022-07-31T13:15:22.652Z,47.40
2022-07-31T13:17:50.395Z,48.00
2022-07-31T13:20:18.535Z,47.40
2022-07-31T13:22:45.905Z,47.10
2022-07-31T13:25:13.712Z,46.70
2022-07-31T13:27:41.824Z,46.10
2022-07-31T13:30:10.253Z,45.70
2022-07-31T13:32:37.625Z,45.80
2022-07-31T13:35:26.983Z,45.90
2022-07-31T13:37:53.790Z,45.30
2022-07-31T13:40:41.218Z,45.00
2022-07-31T13:43:08.606Z,45.20
2022-07-31T13:45:36.271Z,46.10
2022-07-31T13:48:08.673Z,46.90
2022-07-31T13:50:37.742Z,45.80
2022-07-31T13:53:05.126Z,45.80
2022-07-31T13:55:32.601Z,46.40
2022-07-31T13:58:01.276Z,46.70
2022-07-31T14:00:29.511Z,47.80
2022-07-31T14:02:57.351Z,47.20
2022-07-31T14:05:26.726Z,46.70
2022-07-31T14:07:55.702Z,46.70
2022-07-31T14:10:23.576Z,48.00
2022-07-31T14:12:50.948Z,46.40
2022-07-31T14:15:18.586Z,46.90
2022-07-31T14:17:46.067Z,46.80
2022-07-31T14:20:13.608Z,45.40
2022-07-31T14:22:41.660Z,45.60
2022-07-31T14:25:12.235Z,45.40
2022-07-31T14:27:39.757Z,45.80
2022-07-31T14:30:08.591Z,45.30
2022-07-31T14:32:36.124Z,45.70
2022-07-31T14:35:08.015Z,45.70
2022-07-31T14:37:36.507Z,45.90
2022-07-31T14:40:05.144Z,46.30
2022-07-31T14:42:32.827Z,48.20
2022-07-31T14:45:00.209Z,46.80
2022-07-31T14:47:27.568Z,46.30
2022-07-31T14:50:09.454Z,46.00
2022-07-31T14:52:38.405Z,45.90
2022-07-31T14:55:06.690Z,45.30
2022-07-31T14:57:34.207Z,44.20
2022-07-31T15:00:01.640Z,45.50
2022-07-31T15:02:29.164Z,44.70
2022-07-31T15:04:56.687Z,43.80
2022-07-31T15:07:45.867Z,43.90
2022-07-31T15:10:12.064Z,44.60
2022-07-31T15:12:39.544Z,45.40
2022-07-31T15:15:07.844Z,45.30
2022-07-31T15:17:35.262Z,44.30
2022-07-31T15:20:02.872Z,44.60
2022-07-31T15:22:30.238Z,44.90
2022-07-31T15:24:57.593Z,45.30
2022-07-31T15:27:25.623Z,44.70
2022-07-31T15:30:00.320Z,45.30
2022-07-31T15:32:37.258Z,45.10
2022-07-31T15:35:05.915Z,45.60
2022-07-31T15:37:34.904Z,46.00
2022-07-31T15:40:04.111Z,44.70
2022-07-31T15:42:32.169Z,44.00
2022-07-31T15:44:59.564Z,44.00
2022-07-31T15:47:26.943Z,44.40
2022-07-31T15:49:54.328Z,44.10
2022-07-31T15:52:21.685Z,43.90
2022-07-31T15:54:51.803Z,43.60
2022-07-31T15:57:21.138Z,44.00
2022-07-31T15:59:49.290Z,43.70
2022-07-31T16:02:16.820Z,43.50
2022-07-31T16:04:51.723Z,43.80
2022-07-31T16:08:28.944Z,44.90
2022-07-31T16:10:15.288Z,44.90
2022-07-31T16:12:48.005Z,45.50
2022-07-31T16:15:16.259Z,45.60
2022-07-31T16:17:44.040Z,45.70
2022-07-31T16:20:26.338Z,45.90
2022-07-31T16:23:00.855Z,46.60
2022-07-31T16:25:29.247Z,46.00
2022-07-31T16:27:59.644Z,46.50
2022-07-31T16:30:27.440Z,46.70
2022-07-31T16:32:55.062Z,46.80
2022-07-31T16:35:22.612Z,47.00
2022-07-31T16:37:53.328Z,47.00
2022-07-31T16:40:31.053Z,46.20
2022-07-31T16:43:48.354Z,46.40
2022-07-31T16:45:50.729Z,47.30
2022-07-31T16:48:18.101Z,47.10
2022-07-31T16:50:48.149Z,46.90
2022-07-31T16:54:13.004Z,46.90
2022-07-31T16:56:07.990Z,46.80
2022-07-31T16:58:35.326Z,47.00
2022-07-31T17:01:06.220Z,45.90
2022-07-31T17:04:01.001Z,46.30
2022-07-31T17:06:36.459Z,46.60
2022-07-31T17:09:17.543Z,46.70
2022-07-31T17:11:52.964Z,46.10
2022-07-31T17:14:22.009Z,45.80
2022-07-31T17:16:50.311Z,45.80
2022-07-31T17:19:42.573Z,46.20
2022-07-31T17:22:05.800Z,46.50
2022-07-31T17:24:37.030Z,47.40
2022-07-31T17:27:06.255Z,46.90
2022-07-31T17:29:33.926Z,47.20
2022-07-31T17:32:01.336Z,47.30
2022-07-31T17:34:28.679Z,47.70
2022-07-31T17:36:56.323Z,47.50
2022-07-31T17:39:26.230Z,47.60
2022-07-31T17:41:57.618Z,47.80
2022-07-31T17:44:25.083Z,47.70
2022-07-31T17:46:53.061Z,47.90
2022-07-31T17:49:20.914Z,48.20
2022-07-31T17:51:58.935Z,48.30
2022-07-31T17:54:31.349Z,48.30
2022-07-31T17:56:59.426Z,48.80
2022-07-31T17:59:27.096Z,48.90
2022-07-31T18:02:00.124Z,49.30
2022-07-31T18:04:29.215Z,49.50
2022-07-31T18:06:57.813Z,50.00
2022-07-31T18:09:25.267Z,50.00
2022-07-31T18:11:52.817Z,50.00
2022-07-31T18:14:20.540Z,50.30
2022-07-31T18:16:52.041Z,50.80
2022-07-31T18:19:21.378Z,51.00
2022-07-31T18:21:49.338Z,51.20
2022-07-31T18:24:16.695Z,51.20
2022-07-31T18:26:44.087Z,51.40
2022-07-31T18:29:11.435Z,52.10
2022-07-31T18:31:38.795Z,52.20
2022-07-31T18:34:06.409Z,52.30
2022-07-31T18:36:34.089Z,52.90
2022-07-31T18:39:01.670Z,53.20
2022-07-31T18:41:29.637Z,53.40
2022-07-31T18:43:57.365Z,53.70
2022-07-31T18:46:24.931Z,53.80
2022-07-31T18:48:55.804Z,54.20
2022-07-31T18:51:27.986Z,54.40
2022-07-31T18:53:55.404Z,54.50
2022-07-31T18:56:25.978Z,54.40
2022-07-31T18:58:53.704Z,55.30
2022-07-31T19:01:21.305Z,55.60
2022-07-31T19:03:48.788Z,55.00
2022-07-31T19:06:16.567Z,55.10
2022-07-31T19:08:44.198Z,55.40
2022-07-31T19:11:12.226Z,55.80
2022-07-31T19:13:39.611Z,56.00
2022-07-31T19:16:07.022Z,56.00
2022-07-31T19:18:34.511Z,56.50
2022-07-31T19:21:23.619Z,56.50
2022-07-31T19:23:49.458Z,56.70
2022-07-31T19:26:16.793Z,57.10
2022-07-31T19:28:44.342Z,57.30
2022-07-31T19:31:16.049Z,57.20
2022-07-31T19:33:43.458Z,57.20
2022-07-31T19:36:10.974Z,57.30
2022-07-31T19:38:39.634Z,57.50
2022-07-31T19:41:07.061Z,57.60
2022-07-31T19:43:34.415Z,57.60
2022-07-31T19:46:11.618Z,57.60
2022-07-31T19:48:44.557Z,57.50
2022-07-31T19:51:12.965Z,57.60
2022-07-31T19:53:40.529Z,57.60
2022-07-31T19:56:08.539Z,57.60
2022-07-31T19:58:36.549Z,57.70
2022-07-31T20:01:04.888Z,58.00
2022-07-31T20:03:32.522Z,58.10
2022-07-31T20:06:00.404Z,58.10
2022-07-31T20:08:32.886Z,58.30
2022-07-31T20:11:03.323Z,59.00
2022-07-31T20:13:40.548Z,58.50
2022-07-31T20:16:18.863Z,58.70
2022-07-31T20:18:52.805Z,58.90
2022-07-31T20:21:25.951Z,58.90
2022-07-31T20:59:04.231Z,60.90
2022-07-31T21:01:31.626Z,61.00
2022-07-31T21:03:59.073Z,60.90
2022-07-31T21:06:26.432Z,61.20
2022-07-31T21:08:53.766Z,61.10
2022-07-31T21:11:21.198Z,61.20
2022-07-31T21:13:59.706Z,61.30
2022-07-31T21:16:27.103Z,61.40
2022-07-31T21:18:54.771Z,61.80
2022-07-31T21:21:22.680Z,62.10
2022-07-31T21:23:50.196Z,62.00
2022-07-31T21:26:17.725Z,62.40
2022-07-31T21:28:45.382Z,62.40
2022-07-31T21:31:12.941Z,62.70
2022-07-31T21:33:40.488Z,62.90
2022-07-31T21:36:08.434Z,63.00
2022-07-31T21:38:36.569Z,63.20
2022-07-31T21:41:04.295Z,63.40
2022-07-31T21:43:33.545Z,63.60
2022-07-31T21:46:20.941Z,63.80
2022-07-31T21:48:50.091Z,64.10
2022-07-31T21:51:17.740Z,64.20
2022-07-31T21:53:45.142Z,64.90
2022-07-31T21:56:16.065Z,64.80
2022-07-31T21:58:44.569Z,65.10
2022-07-31T22:01:13.607Z,65.40
2022-07-31T22:03:42.119Z,65.50
2022-07-31T22:06:27.933Z,65.70
2022-07-31T22:08:55.446Z,66.10
2022-07-31T22:11:23.035Z,66.00
2022-07-31T22:13:50.648Z,66.50
2022-07-31T22:16:18.090Z,66.60
2022-07-31T22:18:45.914Z,66.50
2022-07-31T22:21:13.622Z,66.90
2022-07-31T22:23:41.556Z,66.90
2022-07-31T22:26:08.972Z,67.40
2022-07-31T22:28:36.645Z,67.40
2022-07-31T22:31:04.275Z,67.60
2022-07-31T22:33:31.842Z,67.60
2022-07-31T22:36:00.089Z,67.90
2022-07-31T22:38:29.260Z,68.00
2022-07-31T22:40:57.806Z,68.30
2022-07-31T22:44:12.634Z,68.50
2022-07-31T22:46:13.422Z,69.20
2022-07-31T22:48:41.253Z,68.80
2022-07-31T22:51:09.013Z,68.90
2022-07-31T22:53:38.218Z,69.00
2022-07-31T22:56:05.628Z,69.10
2022-07-31T22:58:33.964Z,69.20
2022-07-31T23:01:01.376Z,69.70
2022-07-31T23:03:28.764Z,69.50
2022-07-31T23:06:02.625Z,69.60
2022-07-31T23:08:43.472Z,69.80
2022-07-31T23:11:10.825Z,69.90
2022-07-31T23:13:40.255Z,70.80
2022-07-31T23:16:07.603Z,70.20
2022-07-31T23:18:35.051Z,70.40
2022-07-31T23:21:02.384Z,70.60
2022-07-31T23:23:35.613Z,70.70
2022-07-31T23:26:02.983Z,70.80
2022-07-31T23:28:30.348Z,70.60
2022-07-31T23:30:57.714Z,70.70
2022-07-31T23:33:25.042Z,70.60
2022-07-31T23:35:52.394Z,70.80
2022-07-31T23:38:19.735Z,70.50
2022-07-31T23:40:47.114Z,70.60
2022-07-31T23:43:17.132Z,70.60
2022-07-31T23:45:48.056Z,70.60
2022-07-31T23:48:15.423Z,70.40
2022-07-31T23:50:44.327Z,70.40
2022-07-31T23:53:11.742Z,70.30
2022-07-31T23:55:42.727Z,70.20
2022-07-31T23:58:10.492Z,70.00
